createdAt,value
2023-01-25T00:00:01.787Z,21.47
2023-01-25T00:02:31.504Z,20.03
2023-01-25T00:04:58.146Z,19.17
2023-01-25T00:07:24.849Z,24.73
2023-01-25T00:09:51.463Z,16.27
2023-01-25T00:12:20.868Z,20.10
2023-01-25T00:14:47.429Z,17.50
2023-01-25T00:17:14.110Z,17.53
2023-01-25T00:19:43.782Z,17.33
2023-01-25T00:22:10.475Z,19.70
2023-01-25T00:24:37.187Z,23.87
2023-01-25T00:27:03.958Z,16.63
2023-01-25T00:29:31.682Z,18.70
2023-01-25T00:32:02.165Z,17.90
2023-01-25T00:34:29.803Z,16.10
2023-01-25T00:37:01.433Z,25.40
2023-01-25T00:39:28.691Z,17.07
2023-01-25T00:41:55.663Z,15.93
2023-01-25T00:44:23.289Z,16.90
2023-01-25T00:46:52.214Z,14.20
2023-01-25T00:49:24.886Z,19.83
2023-01-25T00:51:52.648Z,16.50
2023-01-25T00:54:20.417Z,18.57
2023-01-25T00:56:47.319Z,16.67
2023-01-25T00:59:14.909Z,22.37
2023-01-25T01:01:42.340Z,15.10
2023-01-25T01:04:09.295Z,15.00
2023-01-25T01:06:37.743Z,14.60
2023-01-25T01:09:06.473Z,16.27
2023-01-25T01:11:33.779Z,18.73
2023-01-25T01:14:00.413Z,17.67
2023-01-25T01:16:27.148Z,19.37
2023-01-25T01:18:54.308Z,16.20
2023-01-25T01:21:21.706Z,18.63
2023-01-25T01:23:48.813Z,16.63
2023-01-25T01:26:19.420Z,16.87
2023-01-25T01:28:46.629Z,21.27
2023-01-25T01:31:18.261Z,25.10
2023-01-25T01:33:53.944Z,18.73
2023-01-25T01:36:23.498Z,18.17
2023-01-25T01:38:50.322Z,15.03
2023-01-25T01:41:17.476Z,17.90
2023-01-25T01:43:45.035Z,21.10
2023-01-25T01:46:23.218Z,19.93
2023-01-25T01:49:01.410Z,17.40
2023-01-25T01:51:47.060Z,13.73
2023-01-25T01:54:24.192Z,12.97
2023-01-25T01:57:16.322Z,14.90
2023-01-25T01:59:50.883Z,13.70
2023-01-25T02:02:17.601Z,20.37
2023-01-25T02:04:48.796Z,14.13
2023-01-25T02:07:21.148Z,14.30
2023-01-25T02:09:50.451Z,16.13
2023-01-25T02:12:18.791Z,14.80
2023-01-25T02:14:52.883Z,17.43
2023-01-25T02:17:24.359Z,15.67
2023-01-25T02:20:00.839Z,14.07
2023-01-25T02:22:40.840Z,16.60
2023-01-25T02:25:11.475Z,16.83
2023-01-25T02:27:46.607Z,17.57
2023-01-25T02:30:13.489Z,12.90
2023-01-25T02:32:43.110Z,12.43
2023-01-25T02:35:22.582Z,13.47
2023-01-25T02:37:50.698Z,15.27
2023-01-25T02:40:18.780Z,15.07
2023-01-25T02:42:46.533Z,16.13
2023-01-25T02:45:18.206Z,12.60
2023-01-25T02:47:45.642Z,16.17
2023-01-25T02:50:14.961Z,15.30
2023-01-25T02:52:41.759Z,17.07
2023-01-25T02:55:09.814Z,11.87
2023-01-25T02:57:38.752Z,15.10
2023-01-25T03:00:07.227Z,15.00
2023-01-25T03:02:34.100Z,16.70
2023-01-25T03:05:00.763Z,16.23
2023-01-25T03:07:27.965Z,11.33
2023-01-25T03:09:55.731Z,15.50
2023-01-25T03:12:23.483Z,17.50
2023-01-25T03:14:50.182Z,15.10
2023-01-25T03:17:18.479Z,15.93
2023-01-25T03:19:45.933Z,12.40
2023-01-25T03:22:12.559Z,14.17
2023-01-25T03:24:42.874Z,11.60
2023-01-25T03:27:14.340Z,10.97
2023-01-25T03:29:47.434Z,7.93
2023-01-25T03:32:19.090Z,11.60
2023-01-25T03:34:45.759Z,8.93
2023-01-25T03:37:13.655Z,12.33
2023-01-25T03:39:40.835Z,10.60
2023-01-25T03:42:07.977Z,9.60
2023-01-25T03:44:34.632Z,10.23
2023-01-25T03:47:01.409Z,11.70
2023-01-25T03:49:35.179Z,12.03
2023-01-25T03:52:03.301Z,12.77
2023-01-25T03:54:36.742Z,10.77
2023-01-25T03:57:03.537Z,10.47
2023-01-25T03:59:33.318Z,10.13
2023-01-25T04:01:59.986Z,10.27
2023-01-25T04:04:26.703Z,14.20
2023-01-25T04:06:53.700Z,16.73
2023-01-25T04:09:23.041Z,12.03
2023-01-25T04:11:52.538Z,12.93
2023-01-25T04:14:31.818Z,10.77
2023-01-25T04:17:08.356Z,16.40
2023-01-25T04:19:42.102Z,11.83
2023-01-25T04:22:12.984Z,12.77
2023-01-25T04:24:39.753Z,11.43
2023-01-25T04:27:06.644Z,10.17
2023-01-25T04:29:41.783Z,9.90
2023-01-25T04:32:14.338Z,11.30
2023-01-25T04:34:41.100Z,12.80
2023-01-25T04:37:12.674Z,10.23
2023-01-25T04:39:49.943Z,10.57
2023-01-25T04:42:16.851Z,12.07
2023-01-25T04:44:46.279Z,14.40
2023-01-25T04:47:13.383Z,9.27
2023-01-25T04:49:40.108Z,24.73
2023-01-25T04:52:07.034Z,11.83
2023-01-25T04:54:34.104Z,12.80
2023-01-25T04:57:01.067Z,11.83
2023-01-25T04:59:27.990Z,9.57
2023-01-25T05:01:55.129Z,10.10
2023-01-25T05:04:21.730Z,13.50
2023-01-25T05:06:50.025Z,9.33
2023-01-25T05:09:17.731Z,12.30
2023-01-25T05:11:45.466Z,12.87
2023-01-25T05:14:20.465Z,9.70
2023-01-25T05:16:47.584Z,10.00
2023-01-25T05:19:14.796Z,13.17
2023-01-25T05:21:59.343Z,10.30
2023-01-25T05:24:45.209Z,13.37
2023-01-25T05:27:17.420Z,11.60
2023-01-25T05:29:53.251Z,15.03
2023-01-25T05:32:23.876Z,11.60
2023-01-25T05:34:50.921Z,14.73
2023-01-25T05:37:20.575Z,11.57
2023-01-25T05:39:52.388Z,12.07
2023-01-25T05:42:19.371Z,13.53
2023-01-25T05:44:47.923Z,12.20
2023-01-25T05:47:17.761Z,11.50
2023-01-25T05:49:44.872Z,16.10
2023-01-25T05:52:17.658Z,14.83
2023-01-25T05:54:44.535Z,12.30
2023-01-25T05:57:16.441Z,10.70
2023-01-25T05:59:43.891Z,11.97
2023-01-25T06:02:13.155Z,12.20
2023-01-25T06:04:40.870Z,12.60
2023-01-25T06:07:09.065Z,10.37
2023-01-25T06:09:36.349Z,9.53
2023-01-25T06:12:04.086Z,9.93
2023-01-25T06:14:30.679Z,16.77
2023-01-25T06:16:57.930Z,14.67
2023-01-25T06:19:24.463Z,19.23
2023-01-25T06:22:00.139Z,14.77
2023-01-25T06:24:26.834Z,14.57
2023-01-25T06:26:53.446Z,18.87
2023-01-25T06:29:20.195Z,20.50
2023-01-25T06:31:46.845Z,13.57
2023-01-25T06:34:13.453Z,15.43
2023-01-25T06:36:42.406Z,13.00
2023-01-25T06:39:09.336Z,18.30
2023-01-25T06:41:36.064Z,14.37
2023-01-25T06:44:03.021Z,15.57
2023-01-25T06:46:32.108Z,16.63
2023-01-25T06:48:58.728Z,15.63
2023-01-25T06:51:25.340Z,12.10
2023-01-25T06:53:52.001Z,17.40
2023-01-25T06:56:22.055Z,13.73
2023-01-25T06:58:49.503Z,17.27
2023-01-25T07:01:19.634Z,15.90
2023-01-25T07:03:51.398Z,16.83
2023-01-25T07:06:18.909Z,18.50
2023-01-25T07:08:45.642Z,14.00
2023-01-25T07:11:14.002Z,17.23
2023-01-25T07:13:42.162Z,14.70
2023-01-25T07:16:13.320Z,18.23
2023-01-25T07:18:40.562Z,16.00
2023-01-25T07:21:16.119Z,21.27
2023-01-25T07:23:43.074Z,17.03
2023-01-25T07:26:18.631Z,24.07
2023-01-25T07:28:46.353Z,14.60
2023-01-25T07:31:13.512Z,18.63
2023-01-25T07:33:40.168Z,16.77
2023-01-25T07:36:09.107Z,14.37
2023-01-25T07:38:36.688Z,16.07
2023-01-25T07:41:03.833Z,13.07
2023-01-25T07:43:30.587Z,19.40
2023-01-25T07:46:05.400Z,13.50
2023-01-25T07:48:33.187Z,14.80
2023-01-25T07:51:23.833Z,17.63
2023-01-25T07:53:55.615Z,15.20
2023-01-25T07:56:24.845Z,12.00
2023-01-25T07:58:56.738Z,15.57
2023-01-25T08:01:25.552Z,18.17
2023-01-25T08:03:53.107Z,18.03
2023-01-25T08:06:30.662Z,18.40
2023-01-25T08:08:58.719Z,13.50
2023-01-25T08:11:28.277Z,13.77
2023-01-25T08:13:55.703Z,12.80
2023-01-25T08:16:25.902Z,16.63
2023-01-25T08:18:55.138Z,16.87
2023-01-25T08:21:24.317Z,13.10
2023-01-25T08:23:51.829Z,13.23
2023-01-25T08:26:18.635Z,20.27
2023-01-25T08:28:45.368Z,15.70
2023-01-25T08:31:18.725Z,16.17
2023-01-25T08:33:46.778Z,14.30
2023-01-25T08:36:15.070Z,18.03
2023-01-25T08:38:41.775Z,14.30
2023-01-25T08:41:17.834Z,16.47
2023-01-25T08:43:45.848Z,19.20
2023-01-25T08:46:13.748Z,14.80
2023-01-25T08:48:40.711Z,18.27
2023-01-25T08:51:15.961Z,17.07
2023-01-25T08:53:43.274Z,16.70
2023-01-25T08:56:12.503Z,11.17
2023-01-25T08:58:41.473Z,16.43
2023-01-25T09:01:10.805Z,15.73
2023-01-25T09:03:39.925Z,16.63
2023-01-25T09:06:07.692Z,21.10
2023-01-25T09:08:35.133Z,12.33
2023-01-25T09:11:21.875Z,16.33
2023-01-25T09:13:49.585Z,16.47
2023-01-25T09:16:19.930Z,17.63
2023-01-25T09:18:49.748Z,17.60
2023-01-25T09:21:18.768Z,24.87
2023-01-25T09:24:05.364Z,17.00
2023-01-25T09:26:34.581Z,16.60
2023-01-25T09:29:01.331Z,17.87
2023-01-25T09:31:29.369Z,12.73
2023-01-25T09:33:59.305Z,19.50
2023-01-25T09:36:26.168Z,22.43
2023-01-25T09:38:53.109Z,20.10
2023-01-25T09:41:51.658Z,19.33
2023-01-25T09:44:31.503Z,21.20
2023-01-25T09:47:17.944Z,15.30
2023-01-25T09:49:44.536Z,16.90
2023-01-25T09:52:32.600Z,16.43
2023-01-25T09:54:59.440Z,17.30
2023-01-25T09:57:37.448Z,20.57
2023-01-25T10:00:17.980Z,16.83
2023-01-25T10:03:10.550Z,18.63
2023-01-25T10:05:46.841Z,15.70
2023-01-25T10:08:44.463Z,17.33
2023-01-25T10:11:21.679Z,18.20
2023-01-25T10:13:48.552Z,21.87
2023-01-25T10:16:41.189Z,17.50
2023-01-25T10:19:26.106Z,22.07
2023-01-25T10:22:01.700Z,23.37
2023-01-25T10:24:52.203Z,19.10
2023-01-25T10:27:34.084Z,17.27
2023-01-25T10:30:26.442Z,18.07
2023-01-25T10:32:57.380Z,22.97
2023-01-25T10:35:35.869Z,21.50
2023-01-25T10:38:13.662Z,18.00
2023-01-25T10:40:46.669Z,19.50
2023-01-25T10:43:22.453Z,21.93
2023-01-25T10:45:50.235Z,19.07
2023-01-25T10:48:28.382Z,19.80
2023-01-25T10:50:57.460Z,15.33
2023-01-25T10:53:24.263Z,23.20
2023-01-25T10:56:09.294Z,23.53
2023-01-25T10:58:37.168Z,21.50
2023-01-25T11:01:13.734Z,20.17
2023-01-25T11:03:46.528Z,19.50
2023-01-25T11:06:13.228Z,16.73
2023-01-25T11:08:43.047Z,18.33
2023-01-25T11:11:31.624Z,21.30
2023-01-25T11:13:58.249Z,22.13
2023-01-25T11:16:31.888Z,20.37
2023-01-25T11:19:00.719Z,23.50
2023-01-25T11:21:30.271Z,23.27
2023-01-25T11:24:23.283Z,22.10
2023-01-25T11:26:49.875Z,19.13
2023-01-25T11:29:22.332Z,18.70
2023-01-25T11:31:53.824Z,17.50
2023-01-25T11:34:25.608Z,22.23
2023-01-25T11:37:06.557Z,18.00
2023-01-25T11:39:55.074Z,21.00
2023-01-25T11:42:30.728Z,20.53
2023-01-25T11:45:03.527Z,22.50
2023-01-25T11:47:57.185Z,23.30
2023-01-25T11:50:45.305Z,24.73
2023-01-25T11:53:17.953Z,22.77
2023-01-25T11:56:16.647Z,20.70
2023-01-25T11:58:52.009Z,23.93
2023-01-25T12:01:24.640Z,26.87
2023-01-25T12:04:25.217Z,24.47
2023-01-25T12:07:06.398Z,16.13
2023-01-25T12:09:59.195Z,23.87
2023-01-25T12:12:43.920Z,16.80
2023-01-25T12:15:21.143Z,18.07
2023-01-25T12:18:12.629Z,20.87
2023-01-25T12:21:00.296Z,26.63
2023-01-25T12:24:04.843Z,23.07
2023-01-25T12:26:40.530Z,23.30
2023-01-25T12:29:16.202Z,16.20
2023-01-25T12:31:51.690Z,20.90
2023-01-25T12:34:25.300Z,17.90
2023-01-25T12:36:51.978Z,20.10
2023-01-25T12:39:33.694Z,21.03
2023-01-25T12:42:07.641Z,20.90
2023-01-25T12:44:44.064Z,16.90
2023-01-25T12:47:48.515Z,17.93
2023-01-25T12:50:28.780Z,20.30
2023-01-25T12:53:21.520Z,12.83
2023-01-25T12:55:49.661Z,16.23
2023-01-25T12:58:32.903Z,18.63
2023-01-25T13:01:30.912Z,16.40
2023-01-25T13:04:27.293Z,21.23
2023-01-25T13:07:03.670Z,20.40
2023-01-25T13:09:42.995Z,18.97
2023-01-25T13:12:11.919Z,19.50
2023-01-25T13:14:42.305Z,19.67
2023-01-25T13:17:38.253Z,16.23
2023-01-25T13:20:39.083Z,15.60
2023-01-25T13:23:45.971Z,15.53
2023-01-25T13:26:24.733Z,18.07
2023-01-25T13:28:52.465Z,18.07
2023-01-25T13:31:51.163Z,18.50
2023-01-25T13:34:37.398Z,17.10
2023-01-25T13:37:15.893Z,16.43
2023-01-25T13:39:44.390Z,17.50
2023-01-25T13:42:10.926Z,17.20
2023-01-25T13:44:45.211Z,17.10
2023-01-25T13:47:14.249Z,17.80
2023-01-25T13:49:41.995Z,14.20
2023-01-25T13:52:15.897Z,18.00
2023-01-25T13:54:47.035Z,14.90
2023-01-25T13:57:19.589Z,19.53
2023-01-25T13:59:46.539Z,22.23
2023-01-25T14:02:23.440Z,18.50
2023-01-25T14:04:51.768Z,20.57
2023-01-25T14:07:21.371Z,21.80
2023-01-25T14:09:49.485Z,14.30
2023-01-25T14:12:40.635Z,16.07
2023-01-25T14:15:30.208Z,17.83
2023-01-25T14:18:19.223Z,14.07
2023-01-25T14:20:48.471Z,18.57
2023-01-25T14:23:30.863Z,21.67
2023-01-25T14:25:59.271Z,18.83
2023-01-25T14:28:26.860Z,17.80
2023-01-25T14:30:56.478Z,20.20
2023-01-25T14:33:29.704Z,19.63
2023-01-25T14:36:16.121Z,16.33
2023-01-25T14:38:50.803Z,21.10
2023-01-25T14:41:34.677Z,26.10
2023-01-25T14:44:10.580Z,20.00
2023-01-25T14:46:38.580Z,24.07
2023-01-25T14:49:14.967Z,23.80
2023-01-25T14:51:59.778Z,25.30
2023-01-25T14:54:29.422Z,22.37
2023-01-25T14:57:05.231Z,25.43
2023-01-25T14:59:41.377Z,21.80
2023-01-25T15:02:32.917Z,18.77
2023-01-25T15:05:14.677Z,20.80
2023-01-25T15:07:54.300Z,29.23
2023-01-25T15:10:29.795Z,22.70
2023-01-25T15:13:15.549Z,29.80
2023-01-25T15:15:57.740Z,27.73
2023-01-25T15:18:53.914Z,24.87
2023-01-25T15:21:24.649Z,25.23
2023-01-25T15:23:52.411Z,23.23
2023-01-25T15:26:23.391Z,18.70
2023-01-25T15:28:52.309Z,17.87
2023-01-25T15:31:23.463Z,18.33
2023-01-25T15:33:50.466Z,22.50
2023-01-25T15:36:18.548Z,29.07
2023-01-25T15:38:45.946Z,21.27
2023-01-25T15:41:13.799Z,18.80
2023-01-25T15:43:40.958Z,18.50
2023-01-25T15:46:23.905Z,22.43
2023-01-25T15:48:51.499Z,16.43
2023-01-25T15:51:19.121Z,42.83
2023-01-25T15:53:46.836Z,17.20
2023-01-25T15:56:19.503Z,18.20
2023-01-25T15:58:51.544Z,19.23
2023-01-25T16:01:18.600Z,23.07
2023-01-25T16:03:45.334Z,19.60
2023-01-25T16:06:40.649Z,19.57
2023-01-25T16:09:19.331Z,17.87
2023-01-25T16:11:48.168Z,17.90
2023-01-25T16:14:14.821Z,21.83
2023-01-25T16:16:49.270Z,22.57
2023-01-25T16:19:18.327Z,16.33
2023-01-25T16:21:45.128Z,22.53
2023-01-25T16:24:11.967Z,31.37
2023-01-25T16:26:44.214Z,37.07
2023-01-25T16:29:11.545Z,19.77
2023-01-25T16:31:38.328Z,19.87
2023-01-25T16:34:05.083Z,16.83
2023-01-25T16:36:32.960Z,19.40
2023-01-25T16:39:13.369Z,21.30
2023-01-25T16:41:39.948Z,19.00
2023-01-25T16:44:06.712Z,19.20
2023-01-25T16:46:33.553Z,22.07
2023-01-25T16:49:00.496Z,19.20
2023-01-25T16:51:28.433Z,18.97
2023-01-25T16:53:58.035Z,21.73
2023-01-25T16:56:29.673Z,20.70
2023-01-25T16:59:00.533Z,17.27
2023-01-25T17:01:27.599Z,23.10
2023-01-25T17:03:55.897Z,27.90
2023-01-25T17:06:26.799Z,24.80
2023-01-25T17:08:57.313Z,32.50
2023-01-25T17:11:25.228Z,26.43
2023-01-25T17:13:54.554Z,24.37
2023-01-25T17:16:23.226Z,21.70
2023-01-25T17:18:54.943Z,25.00
2023-01-25T17:21:22.673Z,25.47
2023-01-25T17:23:50.169Z,28.43
2023-01-25T17:26:19.499Z,27.00
2023-01-25T17:28:46.973Z,28.63
2023-01-25T17:31:14.637Z,24.97
2023-01-25T17:33:41.336Z,33.70
2023-01-25T17:36:09.266Z,25.97
2023-01-25T17:38:35.925Z,24.33
2023-01-25T17:41:05.441Z,23.63
2023-01-25T17:43:34.409Z,25.20
2023-01-25T17:46:14.729Z,27.93
2023-01-25T17:48:41.631Z,27.83
2023-01-25T17:51:11.236Z,19.27
2023-01-25T17:53:37.851Z,23.57
2023-01-25T17:56:05.659Z,23.47
2023-01-25T17:58:35.410Z,21.23
2023-01-25T18:01:13.750Z,22.77
2023-01-25T18:03:41.789Z,17.70
2023-01-25T18:06:09.550Z,23.17
2023-01-25T18:08:44.850Z,17.50
2023-01-25T18:11:15.302Z,20.30
2023-01-25T18:13:45.373Z,18.90
2023-01-25T18:16:12.990Z,17.63
2023-01-25T18:18:42.065Z,27.67
2023-01-25T18:21:11.674Z,21.13
2023-01-25T18:23:39.964Z,16.90
2023-01-25T18:26:16.014Z,21.27
2023-01-25T18:28:42.652Z,18.97
2023-01-25T18:31:10.489Z,23.07
2023-01-25T18:33:38.791Z,25.67
2023-01-25T18:36:05.855Z,17.13
2023-01-25T18:38:35.138Z,15.93
2023-01-25T18:41:01.746Z,19.37
2023-01-25T18:43:28.416Z,20.37
2023-01-25T18:45:56.881Z,20.87
2023-01-25T18:48:30.592Z,23.43
2023-01-25T18:51:12.816Z,18.33
2023-01-25T18:53:42.508Z,28.30
2023-01-25T18:56:13.257Z,22.63
2023-01-25T18:58:40.120Z,20.93
2023-01-25T19:01:18.655Z,20.57
2023-01-25T19:03:47.046Z,18.50
2023-01-25T19:06:15.090Z,19.93
2023-01-25T19:08:44.137Z,20.87
2023-01-25T19:11:13.659Z,24.10
2023-01-25T19:13:42.221Z,27.43
2023-01-25T19:16:15.550Z,19.90
2023-01-25T19:18:46.988Z,18.97
2023-01-25T19:21:22.488Z,22.27
2023-01-25T19:23:49.747Z,21.57
2023-01-25T19:26:18.282Z,20.17
2023-01-25T19:28:46.019Z,22.83
2023-01-25T19:31:15.951Z,20.57
2023-01-25T19:33:43.072Z,22.23
2023-01-25T19:36:18.308Z,19.60
2023-01-25T19:38:46.832Z,21.40
2023-01-25T19:41:15.939Z,19.30
2023-01-25T19:43:43.591Z,19.00
2023-01-25T19:46:12.488Z,16.23
2023-01-25T19:48:40.825Z,19.97
2023-01-25T19:51:15.308Z,21.10
2023-01-25T19:53:47.426Z,19.20
2023-01-25T19:56:16.376Z,25.17
2023-01-25T19:58:44.334Z,22.77
2023-01-25T20:01:14.051Z,20.40
2023-01-25T20:03:41.657Z,19.50
2023-01-25T20:06:09.444Z,17.00
2023-01-25T20:08:39.098Z,21.37
2023-01-25T20:11:17.520Z,18.27
2023-01-25T20:13:44.246Z,25.07
2023-01-25T20:16:12.224Z,20.40
2023-01-25T20:18:39.190Z,23.70
2023-01-25T20:21:09.957Z,18.60
2023-01-25T20:23:39.194Z,17.07
2023-01-25T20:26:08.672Z,20.40
2023-01-25T20:28:36.813Z,20.90
2023-01-25T20:31:04.584Z,19.20
2023-01-25T20:33:34.691Z,23.00
2023-01-25T20:36:02.527Z,27.57
2023-01-25T20:38:33.484Z,18.00
2023-01-25T20:41:05.434Z,19.57
2023-01-25T20:43:32.375Z,20.60
2023-01-25T20:46:00.103Z,26.10
2023-01-25T20:48:28.101Z,20.30
2023-01-25T20:51:02.339Z,20.33
2023-01-25T20:53:30.048Z,19.83
2023-01-25T20:56:00.112Z,22.27
2023-01-25T20:58:28.200Z,22.80
2023-01-25T21:00:55.725Z,24.37
2023-01-25T21:03:22.921Z,20.30
2023-01-25T21:05:54.698Z,24.50
2023-01-25T21:08:22.178Z,20.60
2023-01-25T21:10:50.025Z,17.30
2023-01-25T21:13:17.348Z,21.70
2023-01-25T21:15:44.035Z,20.53
2023-01-25T21:18:10.766Z,23.97
2023-01-25T21:20:37.407Z,19.47
2023-01-25T21:23:04.141Z,26.20
2023-01-25T21:25:30.820Z,21.57
2023-01-25T21:27:57.949Z,22.30
2023-01-25T21:30:24.565Z,20.63
2023-01-25T21:32:51.124Z,21.07
2023-01-25T21:35:17.772Z,16.30
2023-01-25T21:37:46.179Z,18.83
2023-01-25T21:40:13.696Z,22.37
2023-01-25T21:42:40.363Z,21.13
2023-01-25T21:45:27.510Z,18.97
2023-01-25T21:47:58.780Z,19.70
2023-01-25T21:50:45.090Z,23.50
2023-01-25T21:53:11.661Z,23.57
2023-01-25T21:55:38.259Z,22.30
2023-01-25T21:58:04.900Z,21.63
2023-01-25T22:00:31.655Z,22.93
2023-01-25T22:02:58.292Z,20.70
2023-01-25T22:05:24.869Z,21.20
2023-01-25T22:07:51.497Z,25.93
2023-01-25T22:10:18.381Z,20.43
2023-01-25T22:12:45.755Z,20.57
2023-01-25T22:15:12.352Z,25.97
2023-01-25T22:17:38.941Z,26.20
2023-01-25T22:20:06.230Z,20.77
2023-01-25T22:22:32.809Z,22.90
2023-01-25T22:24:59.488Z,19.43
2023-01-25T22:27:57.036Z,24.27
2023-01-25T22:30:23.675Z,22.00
2023-01-25T22:32:50.279Z,24.80
2023-01-25T22:35:16.914Z,21.50
2023-01-25T22:37:43.528Z,18.77
2023-01-25T22:40:11.065Z,24.50
2023-01-25T22:42:37.816Z,27.80
2023-01-25T22:45:05.067Z,24.27
2023-01-25T22:47:31.615Z,28.03
2023-01-25T22:49:58.211Z,19.97
2023-01-25T22:52:24.861Z,23.07
2023-01-25T22:54:51.803Z,25.90
2023-01-25T22:57:18.661Z,22.60
2023-01-25T22:59:45.224Z,28.07
2023-01-25T23:02:11.827Z,22.90
2023-01-25T23:04:38.473Z,23.70
2023-01-25T23:07:12.269Z,28.33
2023-01-25T23:09:40.328Z,22.07
2023-01-25T23:12:07.139Z,26.00
2023-01-25T23:14:51.958Z,25.43
2023-01-25T23:17:42.095Z,24.47
2023-01-25T23:20:11.107Z,25.47
2023-01-25T23:22:37.983Z,27.67
2023-01-25T23:25:06.119Z,22.00
2023-01-25T23:27:32.914Z,27.73
2023-01-25T23:29:59.568Z,25.80
2023-01-25T23:32:26.198Z,28.57
2023-01-25T23:34:53.251Z,29.60
2023-01-25T23:37:21.896Z,26.03
2023-01-25T23:39:50.235Z,26.30
2023-01-25T23:42:19.149Z,29.70
2023-01-25T23:44:45.830Z,29.10
2023-01-25T23:47:12.440Z,25.87
2023-01-25T23:49:39.203Z,30.10
2023-01-25T23:52:05.786Z,32.10
2023-01-25T23:54:32.423Z,22.30
2023-01-25T23:56:59.058Z,29.13
2023-01-25T23:59:25.701Z,26.13
